createdAt,value
2022-10-08T00:01:21.335Z,100112.31
2022-10-08T00:03:51.427Z,100111.31
2022-10-08T00:06:25.574Z,100107.69
2022-10-08T00:08:58.564Z,100096.25
2022-10-08T00:11:34.108Z,100092.72
2022-10-08T00:14:04.872Z,100091.03
2022-10-08T00:16:34.064Z,100092.84
2022-10-08T00:19:06.698Z,100087.69
2022-10-08T00:21:36.215Z,100091.19
2022-10-08T00:24:04.849Z,100090.53
2022-10-08T00:26:44.261Z,100100.22
2022-10-08T00:29:14.594Z,100102.13
2022-10-08T00:31:45.556Z,100103.06
2022-10-08T00:34:19.824Z,100097.72
2022-10-08T00:36:50.054Z,100109.16
2022-10-08T00:39:19.478Z,100094.88
2022-10-08T00:41:49.687Z,100096.63
2022-10-08T00:44:44.070Z,100086.91
2022-10-08T00:47:22.851Z,100096.81
2022-10-08T00:49:53.551Z,100097.72
2022-10-08T00:52:25.512Z,100092.41
2022-10-08T00:54:57.032Z,100092.41
2022-10-08T00:57:23.947Z,100092.22
2022-10-08T00:59:50.580Z,100084.16
2022-10-08T01:02:19.399Z,100078.66
2022-10-08T01:04:48.962Z,100083.81
2022-10-08T01:07:33.142Z,100072.09
2022-10-08T01:10:22.381Z,100074.59
2022-10-08T01:12:58.394Z,100076.22
2022-10-08T01:15:48.037Z,100077.19
2022-10-08T01:18:26.832Z,100074.34
2022-10-08T01:21:12.210Z,100076.06
2022-10-08T01:23:47.583Z,100071.69
2022-10-08T01:26:47.132Z,100063.75
2022-10-08T01:29:16.487Z,100070.91
2022-10-08T01:32:14.094Z,100064.72
2022-10-08T01:34:46.955Z,100061.28
2022-10-08T01:37:21.661Z,100042.63
2022-10-08T01:39:51.208Z,100046.25
2022-10-08T01:42:23.338Z,100047.22
2022-10-08T01:44:58.710Z,100047.41
2022-10-08T01:47:29.033Z,100044.63
2022-10-08T01:50:04.081Z,100041.97
2022-10-08T01:52:37.147Z,100038.34
2022-10-08T01:55:11.542Z,100037.41
2022-10-08T01:57:40.029Z,100025.91
2022-10-08T02:00:10.663Z,100034.66
2022-10-08T02:02:37.389Z,100032.09
2022-10-08T02:05:06.134Z,100032.16
2022-10-08T02:07:38.406Z,100031.41
2022-10-08T02:10:08.162Z,100032.34
2022-10-08T02:12:35.347Z,100051.94
2022-10-08T02:15:04.662Z,100046.72
2022-10-08T02:18:07.968Z,100039.59
2022-10-08T02:20:47.672Z,100030.75
2022-10-08T02:23:17.199Z,100028.94
2022-10-08T02:25:52.376Z,100036.25
2022-10-08T02:28:28.263Z,100038.91
2022-10-08T02:31:24.725Z,100034.44
2022-10-08T02:34:07.652Z,100029.88
2022-10-08T02:36:41.334Z,100020.94
2022-10-08T02:39:10.309Z,100023.59
2022-10-08T02:41:43.234Z,100031.41
2022-10-08T02:44:17.290Z,100032.16
2022-10-08T02:46:49.205Z,100037.59
2022-10-08T02:49:24.219Z,100026.09
2022-10-08T02:51:53.494Z,100017.16
2022-10-08T02:54:22.954Z,100017.31
2022-10-08T02:56:52.544Z,100013.91
2022-10-08T02:59:21.119Z,100022.81
2022-10-08T03:01:57.662Z,100024.75
2022-10-08T03:04:33.161Z,100043.56
2022-10-08T03:07:00.627Z,100055.69
2022-10-08T03:09:34.499Z,100041.09
2022-10-08T03:12:01.429Z,100047.53
2022-10-08T03:14:29.151Z,100035.53
2022-10-08T03:16:55.950Z,100041.03
2022-10-08T03:19:22.983Z,100044.69
2022-10-08T03:21:53.587Z,100033.19
2022-10-08T03:24:20.573Z,100032.34
2022-10-08T03:26:47.278Z,100017.34
2022-10-08T03:29:14.035Z,100007.63
2022-10-08T03:31:40.670Z,100008.69
2022-10-08T03:34:07.309Z,100004.38
2022-10-08T03:36:33.941Z,99994.69
2022-10-08T03:39:00.623Z,100014.41
2022-10-08T03:41:27.561Z,100024.38
2022-10-08T03:43:54.327Z,100022.75
2022-10-08T03:46:21.083Z,100015.69
2022-10-08T03:48:49.913Z,100009.53
2022-10-08T03:51:17.426Z,100011.34
2022-10-08T03:53:44.627Z,100006.13
2022-10-08T03:56:16.944Z,99999.00
2022-10-08T03:58:44.029Z,100004.38
2022-10-08T04:01:16.229Z,99997.47
2022-10-08T04:03:44.319Z,100004.56
2022-10-08T04:06:12.011Z,100011.59
2022-10-08T04:08:38.791Z,100008.16
2022-10-08T04:11:07.313Z,100002.00
2022-10-08T04:13:35.668Z,100002.25
2022-10-08T04:16:13.963Z,100003.19
2022-10-08T04:18:41.282Z,100007.66
2022-10-08T04:21:10.614Z,100012.97
2022-10-08T04:23:39.559Z,100006.09
2022-10-08T04:26:07.145Z,100004.41
2022-10-08T04:28:38.663Z,100000.00
2022-10-08T04:31:12.470Z,100002.66
2022-10-08T04:33:39.590Z,99996.59
2022-10-08T04:36:25.360Z,99995.81
2022-10-08T04:38:52.364Z,99998.56
2022-10-08T04:41:24.659Z,99991.50
2022-10-08T04:43:52.010Z,100002.25
2022-10-08T04:46:20.415Z,100012.09
2022-10-08T04:48:49.026Z,100006.94
2022-10-08T04:51:16.335Z,100005.06
2022-10-08T04:53:43.414Z,100005.16
2022-10-08T04:56:15.516Z,100008.84
2022-10-08T04:58:42.315Z,100024.16
2022-10-08T05:01:13.122Z,100030.53
2022-10-08T05:03:48.228Z,100032.31
2022-10-08T05:06:16.909Z,100034.97
2022-10-08T05:08:44.730Z,100027.19
2022-10-08T05:11:11.705Z,100028.03
2022-10-08T05:13:39.129Z,100016.47
2022-10-08T05:16:08.075Z,100011.03
2022-10-08T05:18:35.829Z,100019.91
2022-10-08T05:21:04.806Z,100031.47
2022-10-08T05:23:31.935Z,100018.25
2022-10-08T05:25:58.653Z,100026.31
2022-10-08T05:28:25.360Z,100019.97
2022-10-08T05:30:52.017Z,100017.31
2022-10-08T05:33:18.710Z,100026.06
2022-10-08T05:35:45.302Z,100023.41
2022-10-08T05:38:11.919Z,100034.22
2022-10-08T05:40:38.551Z,100024.53
2022-10-08T05:43:05.170Z,100025.38
2022-10-08T05:45:31.796Z,100038.75
2022-10-08T05:47:58.492Z,100057.34
2022-10-08T05:50:25.338Z,100049.38
2022-10-08T05:52:51.997Z,100043.19
2022-10-08T05:55:19.909Z,100049.47
2022-10-08T05:57:46.518Z,100055.63
2022-10-08T06:00:14.099Z,100053.94
2022-10-08T06:02:40.785Z,100047.81
2022-10-08T06:05:07.869Z,100060.16
2022-10-08T06:07:34.517Z,100054.78
2022-10-08T06:10:01.170Z,100068.84
2022-10-08T06:12:27.764Z,100075.03
2022-10-08T06:14:57.505Z,100077.59
2022-10-08T06:17:24.140Z,100081.03
2022-10-08T06:19:53.063Z,100084.47
2022-10-08T06:22:19.655Z,100090.63
2022-10-08T06:24:48.571Z,100089.78
2022-10-08T06:27:15.194Z,100090.72
2022-10-08T06:29:43.218Z,100093.38
2022-10-08T06:32:13.785Z,100098.75
2022-10-08T06:34:42.155Z,100102.31
2022-10-08T06:37:08.741Z,100104.88
2022-10-08T06:39:35.343Z,100110.19
2022-10-08T06:42:01.956Z,100113.63
2022-10-08T06:44:28.601Z,100116.28
2022-10-08T06:46:55.256Z,100117.91
2022-10-08T06:49:26.629Z,100117.06
2022-10-08T06:51:53.228Z,100113.47
2022-10-08T06:54:19.975Z,100115.19
2022-10-08T06:56:49.473Z,100113.38
2022-10-08T06:59:16.083Z,100128.22
2022-10-08T07:01:42.798Z,100122.84
2022-10-08T07:04:16.044Z,100133.47
2022-10-08T07:06:42.647Z,100130.81
2022-10-08T07:09:13.487Z,100125.50
2022-10-08T07:11:40.431Z,100130.56
2022-10-08T07:14:07.115Z,100134.06
2022-10-08T07:16:33.954Z,100132.38
2022-10-08T07:19:00.815Z,100128.91
2022-10-08T07:21:29.308Z,100130.81
2022-10-08T07:23:58.190Z,100140.75
2022-10-08T07:26:26.837Z,100138.94
2022-10-08T07:28:59.667Z,100134.41
2022-10-08T07:31:35.606Z,100138.63
2022-10-08T07:34:06.730Z,100143.75
2022-10-08T07:36:33.916Z,100133.75
2022-10-08T07:39:03.524Z,100134.34
2022-10-08T07:41:30.527Z,100133.28
2022-10-08T07:43:59.773Z,100120.72
2022-10-08T07:46:28.232Z,100129.41
2022-10-08T07:48:56.851Z,100125.13
2022-10-08T07:51:23.533Z,100126.91
2022-10-08T07:53:50.211Z,100118.06
2022-10-08T07:56:18.523Z,100123.38
2022-10-08T07:58:45.775Z,100122.00
2022-10-08T08:01:15.548Z,100131.09
2022-10-08T08:03:43.331Z,100126.88
2022-10-08T08:06:15.850Z,100138.44
2022-10-08T08:08:44.942Z,100135.88
2022-10-08T08:11:14.652Z,100139.50
2022-10-08T08:13:42.238Z,100142.06
2022-10-08T08:16:21.403Z,100141.19
2022-10-08T08:18:50.474Z,100135.19
2022-10-08T08:21:20.384Z,100141.44
2022-10-08T08:23:49.357Z,100145.97
2022-10-08T08:26:30.544Z,100142.31
2022-10-08T08:28:59.811Z,100143.75
2022-10-08T08:31:37.767Z,100144.38
2022-10-08T08:34:07.397Z,100143.28
2022-10-08T08:36:39.674Z,100145.88
2022-10-08T08:39:08.429Z,100140.47
2022-10-08T08:42:12.257Z,100137.69
2022-10-08T08:44:41.930Z,100137.53
2022-10-08T08:47:14.686Z,100141.00
2022-10-08T08:49:43.311Z,100140.72
2022-10-08T08:52:13.617Z,100145.66
2022-10-08T08:54:40.718Z,100152.41
2022-10-08T08:57:36.317Z,100147.88
2022-10-08T09:00:13.287Z,100147.97
2022-10-08T09:02:52.252Z,100151.50
2022-10-08T09:05:20.349Z,100151.84
2022-10-08T09:07:51.499Z,100156.47
2022-10-08T09:10:29.804Z,100146.84
2022-10-08T09:12:58.121Z,100145.88
2022-10-08T09:15:32.762Z,100144.88
2022-10-08T09:18:02.182Z,100139.44
2022-10-08T09:20:29.281Z,100150.09
2022-10-08T09:22:57.640Z,100137.66
2022-10-08T09:25:28.338Z,100143.59
2022-10-08T09:27:57.886Z,100145.81
2022-10-08T09:30:24.538Z,100152.28
2022-10-08T09:33:19.581Z,100150.91
2022-10-08T09:35:49.110Z,100147.91
2022-10-08T09:38:24.947Z,100158.09
2022-10-08T09:41:19.599Z,100163.03
2022-10-08T09:44:25.089Z,100160.94
2022-10-08T09:47:05.365Z,100167.06
2022-10-08T09:49:35.015Z,100165.25
2022-10-08T09:52:20.513Z,100165.25
2022-10-08T09:54:56.435Z,100172.22
2022-10-08T09:57:23.378Z,100164.22
2022-10-08T10:00:05.664Z,100164.66
2022-10-08T10:02:37.176Z,100157.00
2022-10-08T10:05:06.692Z,100168.84
2022-10-08T10:07:44.687Z,100172.09
2022-10-08T10:10:36.339Z,100186.69
2022-10-08T10:13:11.144Z,100172.41
2022-10-08T10:15:46.743Z,100172.22
2022-10-08T10:18:20.929Z,100176.25
2022-10-08T10:20:58.761Z,100173.22
2022-10-08T10:23:37.935Z,100181.72
2022-10-08T10:26:16.854Z,100174.28
2022-10-08T10:28:48.408Z,100185.28
2022-10-08T10:31:33.310Z,100180.44
2022-10-08T10:34:08.998Z,100181.88
2022-10-08T10:36:43.201Z,100180.91
2022-10-08T10:39:40.982Z,100184.56
2022-10-08T10:42:20.160Z,100181.41
2022-10-08T10:44:58.798Z,100188.84
2022-10-08T10:47:32.228Z,100183.03
2022-10-08T10:50:01.897Z,100189.94
2022-10-08T10:52:34.842Z,100187.25
2022-10-08T10:55:13.440Z,100189.00
2022-10-08T10:57:48.883Z,100193.38
2022-10-08T11:00:30.285Z,100181.06
2022-10-08T11:03:17.197Z,100194.34
2022-10-08T11:05:47.357Z,100189.38
2022-10-08T11:08:32.382Z,100194.59
2022-10-08T11:11:22.766Z,100181.47
2022-10-08T11:14:19.218Z,100182.31
2022-10-08T11:16:57.778Z,100184.50
2022-10-08T11:19:24.453Z,100176.00
2022-10-08T11:22:11.081Z,100180.75
2022-10-08T11:24:49.528Z,100170.63
2022-10-08T11:27:24.930Z,100165.88
2022-10-08T11:29:55.370Z,100179.56
2022-10-08T11:32:22.762Z,100168.69
2022-10-08T11:35:20.726Z,100168.97
2022-10-08T11:38:23.558Z,100167.91
2022-10-08T11:41:01.547Z,100164.13
2022-10-08T11:43:32.931Z,100172.31
2022-10-08T11:46:29.041Z,100164.19
2022-10-08T11:49:08.866Z,100167.72
2022-10-08T11:51:38.055Z,100160.78
2022-10-08T11:54:16.279Z,100160.13
2022-10-08T11:56:54.384Z,100155.00
2022-10-08T11:59:46.347Z,100155.19
2022-10-08T12:02:26.675Z,100153.66
2022-10-08T12:04:55.859Z,100147.56
2022-10-08T12:07:39.598Z,100159.94
2022-10-08T12:10:06.154Z,100153.75
2022-10-08T12:12:51.083Z,100153.88
2022-10-08T12:15:23.600Z,100154.91
2022-10-08T12:18:26.226Z,100146.25
2022-10-08T12:21:17.907Z,100150.72
2022-10-08T12:23:45.134Z,100156.16
2022-10-08T12:26:13.939Z,100157.22
2022-10-08T12:28:43.292Z,100151.22
2022-10-08T12:31:17.732Z,100152.94
2022-10-08T12:33:55.134Z,100155.69
2022-10-08T12:36:42.026Z,100154.09
2022-10-08T12:39:56.855Z,100166.78
2022-10-08T12:42:30.971Z,100172.50
2022-10-08T12:45:07.430Z,100165.72
2022-10-08T12:47:58.618Z,100166.94
2022-10-08T12:51:16.321Z,100161.69
2022-10-08T12:53:45.546Z,100175.16
2022-10-08T12:56:31.572Z,100167.41
2022-10-08T12:59:03.108Z,100161.31
2022-10-08T13:01:30.192Z,100165.13
2022-10-08T13:04:13.014Z,100173.16
2022-10-08T13:06:39.681Z,100172.38
2022-10-08T13:09:29.269Z,100176.06
2022-10-08T13:12:02.899Z,100178.66
2022-10-08T13:14:33.049Z,100185.91
2022-10-08T13:17:00.342Z,100172.56
2022-10-08T13:19:31.753Z,100175.88
2022-10-08T13:22:06.210Z,100166.25
2022-10-08T13:24:38.753Z,100172.25
2022-10-08T13:27:06.804Z,100177.59
2022-10-08T13:29:36.359Z,100169.69
2022-10-08T13:32:19.479Z,100185.72
2022-10-08T13:34:53.918Z,100175.22
2022-10-08T13:37:40.476Z,100186.75
2022-10-08T13:40:13.255Z,100181.41
2022-10-08T13:42:52.343Z,100172.66
2022-10-08T13:45:22.378Z,100185.91
2022-10-08T13:47:50.024Z,100183.13
2022-10-08T13:50:18.809Z,100186.75
2022-10-08T13:52:53.662Z,100183.34
2022-10-08T13:55:29.654Z,100182.56
2022-10-08T13:58:05.907Z,100188.00
2022-10-08T14:00:42.474Z,100193.41
2022-10-08T14:03:09.677Z,100195.22
2022-10-08T14:05:45.305Z,100190.94
2022-10-08T14:08:26.854Z,100200.94
2022-10-08T14:10:57.968Z,100204.56
2022-10-08T14:13:29.755Z,100199.28
2022-10-08T14:16:02.874Z,100203.78
2022-10-08T14:18:31.799Z,100207.59
2022-10-08T14:20:58.595Z,100214.06
2022-10-08T14:23:28.231Z,100214.41
2022-10-08T14:25:54.926Z,100223.47
2022-10-08T14:28:28.891Z,100215.75
2022-10-08T14:30:58.204Z,100232.78
2022-10-08T14:33:30.784Z,100224.09
2022-10-08T14:35:57.388Z,100235.72
2022-10-08T14:38:28.627Z,100235.13
2022-10-08T14:40:55.239Z,100238.91
2022-10-08T14:43:22.096Z,100240.16
2022-10-08T14:45:48.865Z,100239.44
2022-10-08T14:48:15.946Z,100251.16
2022-10-08T14:50:42.538Z,100253.91
2022-10-08T14:53:10.125Z,100246.19
2022-10-08T14:55:54.498Z,100258.72
2022-10-08T14:58:23.627Z,100253.56
2022-10-08T15:00:55.194Z,100259.00
2022-10-08T15:03:23.426Z,100261.66
2022-10-08T15:05:50.809Z,100263.53
2022-10-08T15:08:17.944Z,100262.00
2022-10-08T15:10:44.898Z,100263.13
2022-10-08T15:13:12.325Z,100258.06
2022-10-08T15:15:43.371Z,100267.16
2022-10-08T15:18:11.439Z,100266.47
2022-10-08T15:20:39.253Z,100266.72
2022-10-08T15:23:07.309Z,100267.81
2022-10-08T15:25:34.191Z,100277.78
2022-10-08T15:28:01.047Z,100279.66
2022-10-08T15:30:28.372Z,100270.97
2022-10-08T15:32:55.287Z,100270.28
2022-10-08T15:35:21.931Z,100280.00
2022-10-08T15:37:48.585Z,100278.38
2022-10-08T15:40:15.315Z,100277.75
2022-10-08T15:42:41.980Z,100287.72
2022-10-08T15:45:08.847Z,100285.31
2022-10-08T15:47:35.461Z,100288.19
2022-10-08T15:50:02.422Z,100292.75
2022-10-08T15:52:29.235Z,100291.22
2022-10-08T15:54:56.041Z,100309.16
2022-10-08T15:57:22.722Z,100301.31
2022-10-08T15:59:49.547Z,100306.88
2022-10-08T16:02:17.942Z,100320.34
2022-10-08T16:04:48.236Z,100315.19
2022-10-08T16:07:15.268Z,100324.25
2022-10-08T16:09:42.014Z,100330.69
2022-10-08T16:12:08.664Z,100339.78
2022-10-08T16:14:35.492Z,100341.84
2022-10-08T16:17:03.013Z,100337.66
2022-10-08T16:19:29.910Z,100339.63
2022-10-08T16:21:57.743Z,100334.38
2022-10-08T16:24:24.934Z,100346.81
2022-10-08T16:26:51.579Z,100351.38
2022-10-08T16:29:18.537Z,100347.06
2022-10-08T16:31:45.820Z,100357.00
2022-10-08T16:34:18.747Z,100362.63
2022-10-08T16:36:48.151Z,100369.88
2022-10-08T16:39:18.283Z,100374.59
2022-10-08T16:41:45.578Z,100369.31
2022-10-08T16:44:14.739Z,100365.97
2022-10-08T16:46:44.193Z,100366.97
2022-10-08T16:49:28.664Z,100361.94
2022-10-08T16:51:58.248Z,100365.63
2022-10-08T16:54:25.793Z,100366.63
2022-10-08T16:56:52.752Z,100377.34
2022-10-08T16:59:21.798Z,100374.91
2022-10-08T17:01:51.238Z,100372.50
2022-10-08T17:04:19.377Z,100385.94
2022-10-08T17:06:46.804Z,100387.09
2022-10-08T17:09:13.878Z,100390.75
2022-10-08T17:11:41.952Z,100386.38
2022-10-08T17:14:10.300Z,100396.16
2022-10-08T17:16:37.842Z,100390.19
2022-10-08T17:19:04.969Z,100400.19
2022-10-08T17:21:35.016Z,100398.53
2022-10-08T17:24:02.880Z,100403.03
2022-10-08T17:26:31.097Z,100410.22
2022-10-08T17:29:01.789Z,100419.13
2022-10-08T17:31:29.430Z,100419.28
2022-10-08T17:33:56.139Z,100423.06
2022-10-08T17:36:26.577Z,100426.72
2022-10-08T17:38:56.146Z,100425.94
2022-10-08T17:41:28.890Z,100432.25
2022-10-08T17:43:57.300Z,100434.91
2022-10-08T17:46:27.178Z,100435.81
2022-10-08T17:48:54.387Z,100432.31
2022-10-08T17:51:23.753Z,100441.06
2022-10-08T17:53:57.827Z,100443.00
2022-10-08T17:56:25.796Z,100447.38
2022-10-08T17:58:53.133Z,100455.44
2022-10-08T18:01:22.416Z,100460.88
2022-10-08T18:04:00.513Z,100460.16
2022-10-08T18:06:29.041Z,100460.19
2022-10-08T18:08:57.433Z,100467.38
2022-10-08T18:11:25.254Z,100469.38
2022-10-08T18:13:51.911Z,100467.75
2022-10-08T18:16:19.986Z,100466.84
2022-10-08T18:18:47.929Z,100467.91
2022-10-08T18:21:16.711Z,100470.69
2022-10-08T18:23:43.800Z,100472.56
2022-10-08T18:26:25.289Z,100477.22
2022-10-08T18:28:57.529Z,100475.50
2022-10-08T18:31:27.093Z,100481.88
2022-10-08T18:33:59.205Z,100484.66
2022-10-08T18:36:28.110Z,100500.56
2022-10-08T18:38:57.099Z,100490.22
2022-10-08T18:41:29.617Z,100495.44
2022-10-08T18:43:57.033Z,100507.81
2022-10-08T18:46:24.022Z,100515.69
2022-10-08T18:48:51.132Z,100511.22
2022-10-08T18:51:21.481Z,100519.16
2022-10-08T18:53:50.188Z,100520.06
2022-10-08T18:56:23.232Z,100522.72
2022-10-08T18:58:53.118Z,100521.00
2022-10-08T19:01:27.676Z,100531.47
2022-10-08T19:03:56.430Z,100534.22
2022-10-08T19:06:26.946Z,100544.88
2022-10-08T19:08:58.521Z,100548.47
2022-10-08T19:11:33.726Z,100549.41
2022-10-08T19:14:01.307Z,100559.22
2022-10-08T19:16:28.593Z,100568.16
2022-10-08T19:19:02.576Z,100567.41
2022-10-08T19:21:31.257Z,100571.81
2022-10-08T19:23:59.337Z,100572.72
2022-10-08T19:26:27.454Z,100578.03
2022-10-08T19:28:55.909Z,100577.16
2022-10-08T19:31:23.667Z,100581.66
2022-10-08T19:33:54.401Z,100582.72
2022-10-08T19:36:22.245Z,100583.84
2022-10-08T19:38:57.012Z,100589.28
2022-10-08T19:41:24.237Z,100604.44
2022-10-08T19:43:51.955Z,100601.16
2022-10-08T19:46:19.426Z,100606.47
2022-10-08T19:48:50.663Z,100614.44
2022-10-08T19:51:18.415Z,100611.94
2022-10-08T19:53:45.362Z,100617.31
2022-10-08T19:56:12.991Z,100628.97
2022-10-08T19:58:46.271Z,100626.31
2022-10-08T20:01:18.539Z,100628.16
2022-10-08T20:03:45.791Z,100636.09
2022-10-08T20:06:21.713Z,100638.00
2022-10-08T20:08:52.431Z,100639.91
2022-10-08T20:11:19.841Z,100640.03
2022-10-08T20:13:48.815Z,100639.34
2022-10-08T20:16:19.087Z,100634.06
2022-10-08T20:18:59.428Z,100644.75
2022-10-08T20:21:28.254Z,100651.00
2022-10-08T20:23:55.242Z,100648.47
2022-10-08T20:26:24.241Z,100656.50
2022-10-08T20:28:53.746Z,100656.59
2022-10-08T20:31:23.052Z,100660.28
2022-10-08T20:33:56.908Z,100669.22
2022-10-08T20:36:24.397Z,100669.38
2022-10-08T20:38:51.491Z,100674.72
2022-10-08T20:41:18.653Z,100674.78
2022-10-08T20:43:45.255Z,100676.56
2022-10-08T20:46:14.715Z,100680.19
2022-10-08T20:48:43.442Z,100678.59
2022-10-08T20:51:15.273Z,100686.56
2022-10-08T20:54:09.383Z,100685.88
2022-10-08T20:56:40.064Z,100690.44
2022-10-08T20:59:14.051Z,100694.06
2022-10-08T21:01:40.888Z,100689.78
2022-10-08T21:04:08.639Z,100688.19
2022-10-08T21:06:41.361Z,100696.31
2022-10-08T21:09:08.412Z,100700.84
2022-10-08T21:11:35.984Z,100694.72
2022-10-08T21:14:03.685Z,100700.13
2022-10-08T21:16:39.055Z,100700.19
2022-10-08T21:19:08.467Z,100700.28
2022-10-08T21:21:35.146Z,100704.72
2022-10-08T21:24:02.406Z,100711.75
2022-10-08T21:26:34.270Z,100714.41
2022-10-08T21:29:03.475Z,100714.47
2022-10-08T21:31:32.316Z,100718.09
2022-10-08T21:33:59.761Z,100714.56
2022-10-08T21:36:31.795Z,100716.41
2022-10-08T21:38:59.834Z,100723.47
2022-10-08T21:41:30.412Z,100735.00
2022-10-08T21:43:59.703Z,100735.06
2022-10-08T21:46:33.166Z,100737.81
2022-10-08T21:49:03.586Z,100731.69
2022-10-08T21:51:31.043Z,100750.22
2022-10-08T21:53:59.849Z,100735.34
2022-10-08T21:56:29.690Z,100742.38
2022-10-08T21:58:59.070Z,100743.28
2022-10-08T22:01:32.142Z,100748.59
2022-10-08T22:04:04.573Z,100739.91
2022-10-08T22:06:37.245Z,100747.03
2022-10-08T22:09:08.355Z,100751.56
2022-10-08T22:11:35.178Z,100750.75
2022-10-08T22:14:01.946Z,100746.41
2022-10-08T22:16:29.772Z,100763.19
2022-10-08T22:19:00.161Z,100755.25
2022-10-08T22:21:29.462Z,100760.63
2022-10-08T22:23:56.137Z,100754.50
2022-10-08T22:26:28.092Z,100761.56
2022-10-08T22:28:57.986Z,100775.63
2022-10-08T22:31:31.751Z,100766.81
2022-10-08T22:34:00.487Z,100773.09
2022-10-08T22:36:34.003Z,100775.81
2022-10-08T22:39:06.653Z,100778.56
2022-10-08T22:41:33.810Z,100782.22
2022-10-08T22:44:02.982Z,100779.59
2022-10-08T22:46:34.228Z,100785.03
2022-10-08T22:49:03.457Z,100784.28
2022-10-08T22:51:41.419Z,100788.81
2022-10-08T22:54:10.153Z,100795.06
2022-10-08T22:56:39.815Z,100797.88
2022-10-08T22:59:06.526Z,100798.91
2022-10-08T23:01:45.932Z,100799.06
2022-10-08T23:04:12.571Z,100807.88
2022-10-08T23:06:41.441Z,100804.44
2022-10-08T23:09:12.272Z,100808.88
2022-10-08T23:11:38.960Z,100814.22
2022-10-08T23:14:06.071Z,100815.09
2022-10-08T23:16:38.338Z,100814.31
2022-10-08T23:19:07.936Z,100812.63
2022-10-08T23:21:44.676Z,100814.47
2022-10-08T23:24:11.311Z,100818.97
2022-10-08T23:26:49.819Z,100809.44
2022-10-08T23:29:16.715Z,100831.41
2022-10-08T23:31:54.837Z,100826.28
2022-10-08T23:34:21.966Z,100839.53
2022-10-08T23:36:57.979Z,100844.91
2022-10-08T23:39:27.495Z,100831.75
2022-10-08T23:42:01.296Z,100845.03
2022-10-08T23:44:31.192Z,100847.75
2022-10-08T23:47:07.561Z,100847.78
2022-10-08T23:49:39.360Z,100847.91
2022-10-08T23:52:06.007Z,100860.25
2022-10-08T23:54:36.466Z,100863.81
2022-10-08T23:57:13.516Z,100869.16
2022-10-08T23:59:48.173Z,100865.69
